sensor_id;sensor_type;location;lat;lon;timestamp;temperature;humidity
35613;DHT22;22054;51.646;7.078;2023-08-30T00:00:46;15.30;99.90
35613;DHT22;22054;51.646;7.078;2023-08-30T00:03:12;15.30;99.90
35613;DHT22;22054;51.646;7.078;2023-08-30T00:05:39;15.20;99.90
35613;DHT22;22054;51.646;7.078;2023-08-30T00:08:06;15.30;99.90
35613;DHT22;22054;51.646;7.078;2023-08-30T00:10:32;15.20;99.90
35613;DHT22;22054;51.646;7.078;2023-08-30T00:12:58;15.20;99.90
35613;DHT22;22054;51.646;7.078;2023-08-30T00:15:23;15.10;99.90
35613;DHT22;22054;51.646;7.078;2023-08-30T00:17:50;15.10;99.90
35613;DHT22;22054;51.646;7.078;2023-08-30T00:20:18;15.00;99.90
35613;DHT22;22054;51.646;7.078;2023-08-30T00:22:44;15.00;99.90
35613;DHT22;22054;51.646;7.078;2023-08-30T00:25:09;14.90;99.90
35613;DHT22;22054;51.646;7.078;2023-08-30T00:27:35;14.90;99.90
35613;DHT22;22054;51.646;7.078;2023-08-30T00:30:01;14.80;99.90
35613;DHT22;22054;51.646;7.078;2023-08-30T00:32:27;14.80;99.90
35613;DHT22;22054;51.646;7.078;2023-08-30T00:34:53;14.80;99.90
35613;DHT22;22054;51.646;7.078;2023-08-30T00:37:19;14.70;99.90
35613;DHT22;22054;51.646;7.078;2023-08-30T00:39:44;14.70;99.90
35613;DHT22;22054;51.646;7.078;2023-08-30T00:42:10;14.60;99.90
35613;DHT22;22054;51.646;7.078;2023-08-30T00:44:36;14.60;99.90
35613;DHT22;22054;51.646;7.078;2023-08-30T00:47:02;14.80;99.90
35613;DHT22;22054;51.646;7.078;2023-08-30T00:49:33;14.60;99.90
35613;DHT22;22054;51.646;7.078;2023-08-30T00:52:02;14.70;99.90
35613;DHT22;22054;51.646;7.078;2023-08-30T00:54:29;14.50;99.90
35613;DHT22;22054;51.646;7.078;2023-08-30T00:56:55;14.80;99.90
35613;DHT22;22054;51.646;7.078;2023-08-30T00:59:21;14.40;99.90
35613;DHT22;22054;51.646;7.078;2023-08-30T01:01:48;14.50;99.90
35613;DHT22;22054;51.646;7.078;2023-08-30T01:04:14;14.40;99.90
35613;DHT22;22054;51.646;7.078;2023-08-30T01:06:41;14.40;99.90
35613;DHT22;22054;51.646;7.078;2023-08-30T01:09:08;14.40;99.90
35613;DHT22;22054;51.646;7.078;2023-08-30T01:11:48;14.30;99.90
35613;DHT22;22054;51.646;7.078;2023-08-30T01:14:22;14.30;99.90
35613;DHT22;22054;51.646;7.078;2023-08-30T01:16:52;14.20;99.90
35613;DHT22;22054;51.646;7.078;2023-08-30T01:22:29;14.30;99.90
35613;DHT22;22054;51.646;7.078;2023-08-30T01:25:20;14.30;99.90
35613;DHT22;22054;51.646;7.078;2023-08-30T01:27:49;14.20;99.90
35613;DHT22;22054;51.646;7.078;2023-08-30T01:30:17;14.40;99.90
35613;DHT22;22054;51.646;7.078;2023-08-30T01:32:44;14.20;99.90
35613;DHT22;22054;51.646;7.078;2023-08-30T01:35:12;13.90;99.90
35613;DHT22;22054;51.646;7.078;2023-08-30T01:37:44;14.10;99.90
35613;DHT22;22054;51.646;7.078;2023-08-30T01:40:14;14.10;99.90
35613;DHT22;22054;51.646;7.078;2023-08-30T01:42:42;14.00;99.90
35613;DHT22;22054;51.646;7.078;2023-08-30T01:45:10;14.30;99.90
35613;DHT22;22054;51.646;7.078;2023-08-30T01:47:39;14.00;99.90
35613;DHT22;22054;51.646;7.078;2023-08-30T01:50:07;14.10;99.90
35613;DHT22;22054;51.646;7.078;2023-08-30T01:52:33;14.00;99.90
35613;DHT22;22054;51.646;7.078;2023-08-30T01:55:00;14.00;99.90
35613;DHT22;22054;51.646;7.078;2023-08-30T01:57:28;13.90;99.90
35613;DHT22;22054;51.646;7.078;2023-08-30T01:59:53;14.00;99.90
35613;DHT22;22054;51.646;7.078;2023-08-30T02:02:19;14.00;99.90
35613;DHT22;22054;51.646;7.078;2023-08-30T02:04:45;14.00;99.90
35613;DHT22;22054;51.646;7.078;2023-08-30T02:07:14;14.00;99.90
35613;DHT22;22054;51.646;7.078;2023-08-30T02:12:39;14.00;99.90
35613;DHT22;22054;51.646;7.078;2023-08-30T02:15:10;14.20;99.90
35613;DHT22;22054;51.646;7.078;2023-08-30T02:17:40;14.10;99.90
35613;DHT22;22054;51.646;7.078;2023-08-30T02:20:07;14.20;99.90
35613;DHT22;22054;51.646;7.078;2023-08-30T02:22:33;14.30;99.90
35613;DHT22;22054;51.646;7.078;2023-08-30T02:24:59;14.60;99.90
35613;DHT22;22054;51.646;7.078;2023-08-30T02:27:26;14.40;99.90
35613;DHT22;22054;51.646;7.078;2023-08-30T02:29:52;14.50;99.90
35613;DHT22;22054;51.646;7.078;2023-08-30T02:32:18;14.50;99.90
35613;DHT22;22054;51.646;7.078;2023-08-30T02:34:49;14.50;99.90
35613;DHT22;22054;51.646;7.078;2023-08-30T02:37:15;14.60;99.90
35613;DHT22;22054;51.646;7.078;2023-08-30T02:39:41;14.60;99.90
35613;DHT22;22054;51.646;7.078;2023-08-30T02:42:07;14.70;99.90
35613;DHT22;22054;51.646;7.078;2023-08-30T02:44:33;14.90;99.90
35613;DHT22;22054;51.646;7.078;2023-08-30T02:46:58;14.70;99.90
35613;DHT22;22054;51.646;7.078;2023-08-30T02:49:24;14.70;99.90
35613;DHT22;22054;51.646;7.078;2023-08-30T02:51:50;14.50;99.90
35613;DHT22;22054;51.646;7.078;2023-08-30T02:54:16;14.70;99.90
35613;DHT22;22054;51.646;7.078;2023-08-30T02:56:42;14.90;99.90
35613;DHT22;22054;51.646;7.078;2023-08-30T02:59:10;14.70;99.90
35613;DHT22;22054;51.646;7.078;2023-08-30T03:01:37;14.60;99.90
35613;DHT22;22054;51.646;7.078;2023-08-30T03:04:07;14.60;99.90
35613;DHT22;22054;51.646;7.078;2023-08-30T03:06:34;14.60;99.90
35613;DHT22;22054;51.646;7.078;2023-08-30T03:09:00;14.50;99.90
35613;DHT22;22054;51.646;7.078;2023-08-30T03:11:26;14.50;99.90
35613;DHT22;22054;51.646;7.078;2023-08-30T03:13:55;14.30;99.90
35613;DHT22;22054;51.646;7.078;2023-08-30T03:16:21;14.30;99.90
35613;DHT22;22054;51.646;7.078;2023-08-30T03:18:47;14.30;99.90
35613;DHT22;22054;51.646;7.078;2023-08-30T03:21:13;14.20;99.90
35613;DHT22;22054;51.646;7.078;2023-08-30T03:23:41;14.10;99.90
35613;DHT22;22054;51.646;7.078;2023-08-30T03:26:08;14.30;99.90
35613;DHT22;22054;51.646;7.078;2023-08-30T03:28:35;14.00;99.90
35613;DHT22;22054;51.646;7.078;2023-08-30T03:31:01;14.00;99.90
35613;DHT22;22054;51.646;7.078;2023-08-30T03:33:27;13.90;99.90
35613;DHT22;22054;51.646;7.078;2023-08-30T03:35:52;14.00;99.90
35613;DHT22;22054;51.646;7.078;2023-08-30T03:38:18;13.90;99.90
35613;DHT22;22054;51.646;7.078;2023-08-30T03:40:44;13.90;99.90
35613;DHT22;22054;51.646;7.078;2023-08-30T03:43:10;13.90;99.90
35613;DHT22;22054;51.646;7.078;2023-08-30T03:45:36;14.20;99.90
35613;DHT22;22054;51.646;7.078;2023-08-30T03:48:03;14.10;99.90
35613;DHT22;22054;51.646;7.078;2023-08-30T03:50:29;14.20;99.90
35613;DHT22;22054;51.646;7.078;2023-08-30T03:52:55;14.10;99.90
35613;DHT22;22054;51.646;7.078;2023-08-30T03:55:21;14.40;99.90
35613;DHT22;22054;51.646;7.078;2023-08-30T03:57:48;14.10;99.90
35613;DHT22;22054;51.646;7.078;2023-08-30T04:00:14;14.60;99.90
35613;DHT22;22054;51.646;7.078;2023-08-30T04:02:40;14.30;99.90
35613;DHT22;22054;51.646;7.078;2023-08-30T04:05:06;14.30;99.90
35613;DHT22;22054;51.646;7.078;2023-08-30T04:07:37;14.30;99.90
35613;DHT22;22054;51.646;7.078;2023-08-30T04:10:03;14.30;99.90
35613;DHT22;22054;51.646;7.078;2023-08-30T04:12:35;14.30;99.90
35613;DHT22;22054;51.646;7.078;2023-08-30T04:15:04;14.30;99.90
35613;DHT22;22054;51.646;7.078;2023-08-30T04:17:30;14.30;99.90
35613;DHT22;22054;51.646;7.078;2023-08-30T04:19:56;14.30;99.90
35613;DHT22;22054;51.646;7.078;2023-08-30T04:22:21;14.30;99.90
35613;DHT22;22054;51.646;7.078;2023-08-30T04:24:48;14.30;99.90
35613;DHT22;22054;51.646;7.078;2023-08-30T04:27:14;14.20;99.90
35613;DHT22;22054;51.646;7.078;2023-08-30T04:29:39;14.20;99.90
35613;DHT22;22054;51.646;7.078;2023-08-30T04:32:05;14.10;99.90
35613;DHT22;22054;51.646;7.078;2023-08-30T04:34:32;14.20;99.90
35613;DHT22;22054;51.646;7.078;2023-08-30T04:36:58;14.00;99.90
35613;DHT22;22054;51.646;7.078;2023-08-30T04:39:23;14.00;99.90
35613;DHT22;22054;51.646;7.078;2023-08-30T04:41:49;14.00;99.90
35613;DHT22;22054;51.646;7.078;2023-08-30T04:44:15;14.20;99.90
35613;DHT22;22054;51.646;7.078;2023-08-30T04:46:42;13.90;99.90
35613;DHT22;22054;51.646;7.078;2023-08-30T04:49:08;13.90;99.90
35613;DHT22;22054;51.646;7.078;2023-08-30T04:51:34;14.00;99.90
35613;DHT22;22054;51.646;7.078;2023-08-30T04:53:59;13.80;99.90
35613;DHT22;22054;51.646;7.078;2023-08-30T04:56:25;13.80;99.90
35613;DHT22;22054;51.646;7.078;2023-08-30T04:58:54;13.80;99.90
35613;DHT22;22054;51.646;7.078;2023-08-30T05:01:20;13.70;99.90
35613;DHT22;22054;51.646;7.078;2023-08-30T05:03:46;13.80;99.90
35613;DHT22;22054;51.646;7.078;2023-08-30T05:06:12;13.60;99.90
35613;DHT22;22054;51.646;7.078;2023-08-30T05:08:41;13.60;99.90
35613;DHT22;22054;51.646;7.078;2023-08-30T05:11:07;13.70;99.90
35613;DHT22;22054;51.646;7.078;2023-08-30T05:13:33;13.80;99.90
35613;DHT22;22054;51.646;7.078;2023-08-30T05:15:59;13.80;99.90
35613;DHT22;22054;51.646;7.078;2023-08-30T05:18:25;13.80;99.90
35613;DHT22;22054;51.646;7.078;2023-08-30T05:20:50;13.80;99.90
35613;DHT22;22054;51.646;7.078;2023-08-30T05:23:16;13.80;99.90
35613;DHT22;22054;51.646;7.078;2023-08-30T05:25:42;13.90;99.90
35613;DHT22;22054;51.646;7.078;2023-08-30T05:28:07;13.90;99.90
35613;DHT22;22054;51.646;7.078;2023-08-30T05:30:33;14.00;99.90
35613;DHT22;22054;51.646;7.078;2023-08-30T05:32:59;14.00;99.90
35613;DHT22;22054;51.646;7.078;2023-08-30T05:35:25;14.00;99.90
35613;DHT22;22054;51.646;7.078;2023-08-30T05:37:51;14.00;99.90
35613;DHT22;22054;51.646;7.078;2023-08-30T05:40:17;14.00;99.90
35613;DHT22;22054;51.646;7.078;2023-08-30T05:42:43;14.00;99.90
35613;DHT22;22054;51.646;7.078;2023-08-30T05:45:10;14.20;99.90
35613;DHT22;22054;51.646;7.078;2023-08-30T05:47:36;14.10;99.90
35613;DHT22;22054;51.646;7.078;2023-08-30T05:50:02;14.20;99.90
35613;DHT22;22054;51.646;7.078;2023-08-30T05:52:28;14.10;99.90
35613;DHT22;22054;51.646;7.078;2023-08-30T05:54:53;14.10;99.90
35613;DHT22;22054;51.646;7.078;2023-08-30T05:57:19;14.10;99.90
35613;DHT22;22054;51.646;7.078;2023-08-30T05:59:47;14.20;99.90
35613;DHT22;22054;51.646;7.078;2023-08-30T06:02:13;14.20;99.90
35613;DHT22;22054;51.646;7.078;2023-08-30T06:04:39;14.30;99.90
35613;DHT22;22054;51.646;7.078;2023-08-30T06:07:04;14.50;99.90
35613;DHT22;22054;51.646;7.078;2023-08-30T06:09:30;14.40;99.90
35613;DHT22;22054;51.646;7.078;2023-08-30T06:11:56;14.40;99.90
35613;DHT22;22054;51.646;7.078;2023-08-30T06:14:22;14.60;99.90
35613;DHT22;22054;51.646;7.078;2023-08-30T06:16:47;14.60;99.90
35613;DHT22;22054;51.646;7.078;2023-08-30T06:19:14;14.90;99.90
35613;DHT22;22054;51.646;7.078;2023-08-30T06:21:40;14.60;99.90
35613;DHT22;22054;51.646;7.078;2023-08-30T06:24:05;15.10;99.90
35613;DHT22;22054;51.646;7.078;2023-08-30T06:26:31;15.00;99.90
35613;DHT22;22054;51.646;7.078;2023-08-30T06:28:58;15.10;99.90
35613;DHT22;22054;51.646;7.078;2023-08-30T06:31:23;15.20;99.90
35613;DHT22;22054;51.646;7.078;2023-08-30T06:33:49;15.20;99.90
35613;DHT22;22054;51.646;7.078;2023-08-30T06:36:16;15.40;99.90
35613;DHT22;22054;51.646;7.078;2023-08-30T06:38:43;15.80;99.90
35613;DHT22;22054;51.646;7.078;2023-08-30T06:41:08;16.00;99.90
35613;DHT22;22054;51.646;7.078;2023-08-30T06:43:34;15.90;99.90
35613;DHT22;22054;51.646;7.078;2023-08-30T06:46:00;15.90;99.90
35613;DHT22;22054;51.646;7.078;2023-08-30T06:48:26;16.40;99.90
35613;DHT22;22054;51.646;7.078;2023-08-30T06:50:51;16.20;99.90
35613;DHT22;22054;51.646;7.078;2023-08-30T06:53:17;16.30;99.90
35613;DHT22;22054;51.646;7.078;2023-08-30T06:55:43;16.50;99.90
35613;DHT22;22054;51.646;7.078;2023-08-30T06:58:09;16.40;99.90
35613;DHT22;22054;51.646;7.078;2023-08-30T07:00:34;16.50;99.90
35613;DHT22;22054;51.646;7.078;2023-08-30T07:03:00;16.60;99.90
35613;DHT22;22054;51.646;7.078;2023-08-30T07:05:26;16.70;99.90
35613;DHT22;22054;51.646;7.078;2023-08-30T07:07:52;16.80;99.90
35613;DHT22;22054;51.646;7.078;2023-08-30T07:10:17;16.90;99.90
35613;DHT22;22054;51.646;7.078;2023-08-30T07:12:43;16.90;99.90
35613;DHT22;22054;51.646;7.078;2023-08-30T07:15:10;16.90;99.90
35613;DHT22;22054;51.646;7.078;2023-08-30T07:17:36;17.00;99.90
35613;DHT22;22054;51.646;7.078;2023-08-30T07:20:02;17.10;99.90
35613;DHT22;22054;51.646;7.078;2023-08-30T07:22:30;17.10;99.90
35613;DHT22;22054;51.646;7.078;2023-08-30T07:24:55;17.30;99.90
35613;DHT22;22054;51.646;7.078;2023-08-30T07:27:21;17.40;99.90
35613;DHT22;22054;51.646;7.078;2023-08-30T07:29:47;17.40;99.90
35613;DHT22;22054;51.646;7.078;2023-08-30T07:32:13;17.20;99.90
35613;DHT22;22054;51.646;7.078;2023-08-30T07:34:38;17.40;99.90
35613;DHT22;22054;51.646;7.078;2023-08-30T07:37:04;17.50;99.90
35613;DHT22;22054;51.646;7.078;2023-08-30T07:39:30;17.60;99.90
35613;DHT22;22054;51.646;7.078;2023-08-30T07:41:56;17.40;99.90
35613;DHT22;22054;51.646;7.078;2023-08-30T07:44:21;17.70;99.90
35613;DHT22;22054;51.646;7.078;2023-08-30T07:46:49;17.80;99.90
35613;DHT22;22054;51.646;7.078;2023-08-30T07:49:15;17.90;99.90
35613;DHT22;22054;51.646;7.078;2023-08-30T07:51:40;17.90;99.90
35613;DHT22;22054;51.646;7.078;2023-08-30T07:54:06;18.00;99.90
35613;DHT22;22054;51.646;7.078;2023-08-30T07:56:32;18.20;99.90
35613;DHT22;22054;51.646;7.078;2023-08-30T07:58:58;18.20;99.90
35613;DHT22;22054;51.646;7.078;2023-08-30T08:01:24;18.10;99.90
35613;DHT22;22054;51.646;7.078;2023-08-30T08:03:49;18.00;99.90
35613;DHT22;22054;51.646;7.078;2023-08-30T08:06:15;18.40;99.90
35613;DHT22;22054;51.646;7.078;2023-08-30T08:08:41;18.40;99.90
35613;DHT22;22054;51.646;7.078;2023-08-30T08:11:07;18.30;99.90
35613;DHT22;22054;51.646;7.078;2023-08-30T08:13:32;18.50;99.90
35613;DHT22;22054;51.646;7.078;2023-08-30T08:15:58;18.60;99.90
35613;DHT22;22054;51.646;7.078;2023-08-30T08:18:24;18.70;99.90
35613;DHT22;22054;51.646;7.078;2023-08-30T08:20:50;18.80;99.90
35613;DHT22;22054;51.646;7.078;2023-08-30T08:23:16;19.20;99.90
35613;DHT22;22054;51.646;7.078;2023-08-30T08:25:41;19.10;99.90
35613;DHT22;22054;51.646;7.078;2023-08-30T08:28:07;19.20;99.90
35613;DHT22;22054;51.646;7.078;2023-08-30T08:30:33;19.50;99.90
35613;DHT22;22054;51.646;7.078;2023-08-30T08:32:59;19.40;99.90
35613;DHT22;22054;51.646;7.078;2023-08-30T08:35:25;19.20;99.90
35613;DHT22;22054;51.646;7.078;2023-08-30T08:37:50;19.30;99.90
35613;DHT22;22054;51.646;7.078;2023-08-30T08:40:16;19.30;99.90
35613;DHT22;22054;51.646;7.078;2023-08-30T08:42:43;19.10;99.90
35613;DHT22;22054;51.646;7.078;2023-08-30T08:45:10;19.00;99.90
35613;DHT22;22054;51.646;7.078;2023-08-30T08:47:37;19.10;99.90
35613;DHT22;22054;51.646;7.078;2023-08-30T08:50:04;18.80;99.90
35613;DHT22;22054;51.646;7.078;2023-08-30T08:52:30;18.80;99.90
35613;DHT22;22054;51.646;7.078;2023-08-30T08:54:57;18.80;99.90
35613;DHT22;22054;51.646;7.078;2023-08-30T08:57:25;19.10;99.90
35613;DHT22;22054;51.646;7.078;2023-08-30T08:59:51;19.10;99.90
35613;DHT22;22054;51.646;7.078;2023-08-30T09:02:17;19.40;99.90
35613;DHT22;22054;51.646;7.078;2023-08-30T09:04:43;19.70;99.90
35613;DHT22;22054;51.646;7.078;2023-08-30T09:07:09;20.10;99.90
35613;DHT22;22054;51.646;7.078;2023-08-30T09:09:35;20.20;99.90
35613;DHT22;22054;51.646;7.078;2023-08-30T09:12:01;20.10;99.90
35613;DHT22;22054;51.646;7.078;2023-08-30T09:14:28;20.20;99.90
35613;DHT22;22054;51.646;7.078;2023-08-30T09:17:01;20.20;99.90
35613;DHT22;22054;51.646;7.078;2023-08-30T09:19:28;20.30;99.90
35613;DHT22;22054;51.646;7.078;2023-08-30T09:21:55;20.20;99.90
35613;DHT22;22054;51.646;7.078;2023-08-30T09:24:22;20.00;99.90
35613;DHT22;22054;51.646;7.078;2023-08-30T09:26:52;19.90;99.90
35613;DHT22;22054;51.646;7.078;2023-08-30T09:29:21;19.80;99.90
35613;DHT22;22054;51.646;7.078;2023-08-30T09:31:51;19.60;99.90
35613;DHT22;22054;51.646;7.078;2023-08-30T09:34:24;19.30;99.90
35613;DHT22;22054;51.646;7.078;2023-08-30T09:36:51;19.10;99.90
35613;DHT22;22054;51.646;7.078;2023-08-30T09:39:17;19.10;99.90
35613;DHT22;22054;51.646;7.078;2023-08-30T09:41:45;18.90;99.90
35613;DHT22;22054;51.646;7.078;2023-08-30T09:44:14;18.80;99.90
35613;DHT22;22054;51.646;7.078;2023-08-30T09:49:11;17.90;99.90
35613;DHT22;22054;51.646;7.078;2023-08-30T09:51:39;17.40;99.90
35613;DHT22;22054;51.646;7.078;2023-08-30T09:56:42;16.80;99.90
35613;DHT22;22054;51.646;7.078;2023-08-30T09:59:12;16.70;99.90
35613;DHT22;22054;51.646;7.078;2023-08-30T10:01:44;16.70;99.90
35613;DHT22;22054;51.646;7.078;2023-08-30T10:04:12;16.60;99.90
35613;DHT22;22054;51.646;7.078;2023-08-30T10:06:39;16.50;99.90
35613;DHT22;22054;51.646;7.078;2023-08-30T10:09:06;16.40;99.90
35613;DHT22;22054;51.646;7.078;2023-08-30T10:11:34;16.40;99.90
35613;DHT22;22054;51.646;7.078;2023-08-30T10:14:05;16.50;99.90
35613;DHT22;22054;51.646;7.078;2023-08-30T10:16:43;16.60;99.90
35613;DHT22;22054;51.646;7.078;2023-08-30T10:19:23;16.50;99.90
35613;DHT22;22054;51.646;7.078;2023-08-30T10:22:05;16.30;99.90
35613;DHT22;22054;51.646;7.078;2023-08-30T10:24:39;16.20;99.90
35613;DHT22;22054;51.646;7.078;2023-08-30T10:27:08;16.10;99.90
35613;DHT22;22054;51.646;7.078;2023-08-30T10:29:36;16.00;99.90
35613;DHT22;22054;51.646;7.078;2023-08-30T10:32:07;15.90;99.90
35613;DHT22;22054;51.646;7.078;2023-08-30T10:34:33;15.80;99.90
35613;DHT22;22054;51.646;7.078;2023-08-30T10:37:00;15.70;99.90
35613;DHT22;22054;51.646;7.078;2023-08-30T10:39:38;15.70;99.90
35613;DHT22;22054;51.646;7.078;2023-08-30T10:42:13;15.70;99.90
35613;DHT22;22054;51.646;7.078;2023-08-30T10:44:51;15.70;99.90
35613;DHT22;22054;51.646;7.078;2023-08-30T10:47:25;15.70;99.90
35613;DHT22;22054;51.646;7.078;2023-08-30T10:49:54;15.70;99.90
35613;DHT22;22054;51.646;7.078;2023-08-30T10:52:21;15.60;99.90
35613;DHT22;22054;51.646;7.078;2023-08-30T10:54:47;15.60;99.90
35613;DHT22;22054;51.646;7.078;2023-08-30T10:57:15;15.60;99.90
35613;DHT22;22054;51.646;7.078;2023-08-30T11:02:35;15.60;99.90
35613;DHT22;22054;51.646;7.078;2023-08-30T11:05:03;15.50;99.90
35613;DHT22;22054;51.646;7.078;2023-08-30T11:07:31;15.40;99.90
35613;DHT22;22054;51.646;7.078;2023-08-30T11:09:58;15.30;99.90
35613;DHT22;22054;51.646;7.078;2023-08-30T11:12:24;15.30;99.90
35613;DHT22;22054;51.646;7.078;2023-08-30T11:14:52;15.30;99.90
35613;DHT22;22054;51.646;7.078;2023-08-30T11:17:21;15.60;99.90
35613;DHT22;22054;51.646;7.078;2023-08-30T11:19:49;15.40;99.90
35613;DHT22;22054;51.646;7.078;2023-08-30T11:22:16;15.50;99.90
35613;DHT22;22054;51.646;7.078;2023-08-30T11:24:43;15.40;99.90
35613;DHT22;22054;51.646;7.078;2023-08-30T11:27:09;15.30;99.90
35613;DHT22;22054;51.646;7.078;2023-08-30T11:29:35;15.40;99.90
35613;DHT22;22054;51.646;7.078;2023-08-30T11:32:01;15.30;99.90
35613;DHT22;22054;51.646;7.078;2023-08-30T11:34:27;15.40;99.90
35613;DHT22;22054;51.646;7.078;2023-08-30T11:36:52;15.50;99.90
35613;DHT22;22054;51.646;7.078;2023-08-30T11:39:19;15.40;99.90
35613;DHT22;22054;51.646;7.078;2023-08-30T11:41:46;15.40;99.90
35613;DHT22;22054;51.646;7.078;2023-08-30T11:44:12;15.40;99.90
35613;DHT22;22054;51.646;7.078;2023-08-30T11:46:38;15.40;99.90
35613;DHT22;22054;51.646;7.078;2023-08-30T11:49:04;15.50;99.90
35613;DHT22;22054;51.646;7.078;2023-08-30T11:51:30;15.40;99.90
35613;DHT22;22054;51.646;7.078;2023-08-30T11:53:57;15.40;99.90
35613;DHT22;22054;51.646;7.078;2023-08-30T11:56:24;15.60;99.90
35613;DHT22;22054;51.646;7.078;2023-08-30T11:58:50;15.50;99.90
35613;DHT22;22054;51.646;7.078;2023-08-30T12:01:18;15.50;99.90
35613;DHT22;22054;51.646;7.078;2023-08-30T12:03:44;15.50;99.90
35613;DHT22;22054;51.646;7.078;2023-08-30T12:06:16;15.50;99.90
35613;DHT22;22054;51.646;7.078;2023-08-30T12:08:42;15.60;99.90
35613;DHT22;22054;51.646;7.078;2023-08-30T12:11:18;15.60;99.90
35613;DHT22;22054;51.646;7.078;2023-08-30T12:13:45;15.60;99.90
35613;DHT22;22054;51.646;7.078;2023-08-30T12:16:15;15.60;99.90
35613;DHT22;22054;51.646;7.078;2023-08-30T12:18:43;15.60;99.90
35613;DHT22;22054;51.646;7.078;2023-08-30T12:21:09;15.50;99.90
35613;DHT22;22054;51.646;7.078;2023-08-30T12:23:34;15.60;99.90
35613;DHT22;22054;51.646;7.078;2023-08-30T12:26:03;16.00;99.90
35613;DHT22;22054;51.646;7.078;2023-08-30T12:28:31;15.80;99.90
35613;DHT22;22054;51.646;7.078;2023-08-30T12:30:58;16.00;99.90
35613;DHT22;22054;51.646;7.078;2023-08-30T12:33:25;16.00;99.90
35613;DHT22;22054;51.646;7.078;2023-08-30T12:35:51;15.90;99.90
35613;DHT22;22054;51.646;7.078;2023-08-30T12:38:18;15.80;99.90
35613;DHT22;22054;51.646;7.078;2023-08-30T12:40:48;15.90;99.90
35613;DHT22;22054;51.646;7.078;2023-08-30T12:43:16;16.00;99.90
35613;DHT22;22054;51.646;7.078;2023-08-30T12:45:43;16.00;99.90
35613;DHT22;22054;51.646;7.078;2023-08-30T12:48:10;16.10;99.90
35613;DHT22;22054;51.646;7.078;2023-08-30T12:50:38;16.10;99.90
35613;DHT22;22054;51.646;7.078;2023-08-30T12:53:04;16.10;99.90
35613;DHT22;22054;51.646;7.078;2023-08-30T12:55:31;16.20;99.90
35613;DHT22;22054;51.646;7.078;2023-08-30T12:57:57;16.00;99.90
35613;DHT22;22054;51.646;7.078;2023-08-30T13:00:24;16.10;99.90
35613;DHT22;22054;51.646;7.078;2023-08-30T13:02:50;16.00;99.90
35613;DHT22;22054;51.646;7.078;2023-08-30T13:05:16;16.00;99.90
35613;DHT22;22054;51.646;7.078;2023-08-30T13:07:42;16.10;99.90
35613;DHT22;22054;51.646;7.078;2023-08-30T13:10:09;16.10;99.90
35613;DHT22;22054;51.646;7.078;2023-08-30T13:12:35;16.10;99.90
35613;DHT22;22054;51.646;7.078;2023-08-30T13:15:04;16.10;99.90
35613;DHT22;22054;51.646;7.078;2023-08-30T13:17:30;16.30;99.90
35613;DHT22;22054;51.646;7.078;2023-08-30T13:19:56;16.10;99.90
35613;DHT22;22054;51.646;7.078;2023-08-30T13:22:24;16.10;99.90
35613;DHT22;22054;51.646;7.078;2023-08-30T13:24:51;16.10;99.90
35613;DHT22;22054;51.646;7.078;2023-08-30T13:27:18;16.00;99.90
35613;DHT22;22054;51.646;7.078;2023-08-30T13:29:44;16.00;99.90
35613;DHT22;22054;51.646;7.078;2023-08-30T13:32:10;15.80;99.90
35613;DHT22;22054;51.646;7.078;2023-08-30T13:34:35;15.80;99.90
35613;DHT22;22054;51.646;7.078;2023-08-30T13:37:01;15.90;99.90
35613;DHT22;22054;51.646;7.078;2023-08-30T13:39:27;16.00;99.90
35613;DHT22;22054;51.646;7.078;2023-08-30T13:41:53;16.10;99.90
35613;DHT22;22054;51.646;7.078;2023-08-30T13:44:18;16.10;99.90
35613;DHT22;22054;51.646;7.078;2023-08-30T13:46:44;16.20;99.90
35613;DHT22;22054;51.646;7.078;2023-08-30T13:49:13;16.10;99.90
35613;DHT22;22054;51.646;7.078;2023-08-30T13:51:38;15.90;99.90
35613;DHT22;22054;51.646;7.078;2023-08-30T13:54:04;15.80;99.90
35613;DHT22;22054;51.646;7.078;2023-08-30T13:56:30;15.90;99.90
35613;DHT22;22054;51.646;7.078;2023-08-30T13:58:57;15.80;99.90
35613;DHT22;22054;51.646;7.078;2023-08-30T14:01:23;15.80;99.90
35613;DHT22;22054;51.646;7.078;2023-08-30T14:03:49;15.90;99.90
35613;DHT22;22054;51.646;7.078;2023-08-30T14:06:15;15.90;99.90
35613;DHT22;22054;51.646;7.078;2023-08-30T14:08:41;15.70;99.90
35613;DHT22;22054;51.646;7.078;2023-08-30T14:11:08;15.70;99.90
35613;DHT22;22054;51.646;7.078;2023-08-30T14:13:33;15.70;99.90
35613;DHT22;22054;51.646;7.078;2023-08-30T14:16:02;15.80;99.90
35613;DHT22;22054;51.646;7.078;2023-08-30T14:18:29;15.80;99.90
35613;DHT22;22054;51.646;7.078;2023-08-30T14:20:59;15.80;99.90
35613;DHT22;22054;51.646;7.078;2023-08-30T14:23:26;15.80;99.90
35613;DHT22;22054;51.646;7.078;2023-08-30T14:26:04;15.80;99.90
35613;DHT22;22054;51.646;7.078;2023-08-30T14:28:34;15.80;99.90
35613;DHT22;22054;51.646;7.078;2023-08-30T14:31:01;15.80;99.90
35613;DHT22;22054;51.646;7.078;2023-08-30T14:33:27;15.80;99.90
35613;DHT22;22054;51.646;7.078;2023-08-30T14:35:52;15.70;99.90
35613;DHT22;22054;51.646;7.078;2023-08-30T14:38:19;15.50;99.90
35613;DHT22;22054;51.646;7.078;2023-08-30T14:40:57;15.40;99.90
35613;DHT22;22054;51.646;7.078;2023-08-30T14:43:27;15.20;99.90
35613;DHT22;22054;51.646;7.078;2023-08-30T14:46:02;15.50;99.90
35613;DHT22;22054;51.646;7.078;2023-08-30T14:48:29;15.30;99.90
35613;DHT22;22054;51.646;7.078;2023-08-30T14:51:00;15.30;99.90
35613;DHT22;22054;51.646;7.078;2023-08-30T14:53:26;15.50;99.90
35613;DHT22;22054;51.646;7.078;2023-08-30T14:55:52;15.60;99.90
35613;DHT22;22054;51.646;7.078;2023-08-30T14:58:19;15.70;99.90
35613;DHT22;22054;51.646;7.078;2023-08-30T15:00:47;15.80;99.90
35613;DHT22;22054;51.646;7.078;2023-08-30T15:03:13;16.00;99.90
35613;DHT22;22054;51.646;7.078;2023-08-30T15:05:39;16.00;99.90
35613;DHT22;22054;51.646;7.078;2023-08-30T15:08:05;15.80;99.90
35613;DHT22;22054;51.646;7.078;2023-08-30T15:10:32;16.00;99.90
35613;DHT22;22054;51.646;7.078;2023-08-30T15:12:58;16.00;99.90
35613;DHT22;22054;51.646;7.078;2023-08-30T15:15:24;16.00;99.90
35613;DHT22;22054;51.646;7.078;2023-08-30T15:17:49;15.90;99.90
35613;DHT22;22054;51.646;7.078;2023-08-30T15:20:15;15.90;99.90
35613;DHT22;22054;51.646;7.078;2023-08-30T15:22:41;15.90;99.90
35613;DHT22;22054;51.646;7.078;2023-08-30T15:25:07;15.90;99.90
35613;DHT22;22054;51.646;7.078;2023-08-30T15:27:34;15.80;99.90
35613;DHT22;22054;51.646;7.078;2023-08-30T15:30:00;15.80;99.90
35613;DHT22;22054;51.646;7.078;2023-08-30T15:32:26;15.80;99.90
35613;DHT22;22054;51.646;7.078;2023-08-30T15:34:54;15.70;99.90
35613;DHT22;22054;51.646;7.078;2023-08-30T15:37:20;15.60;99.90
35613;DHT22;22054;51.646;7.078;2023-08-30T15:39:47;15.50;99.90
35613;DHT22;22054;51.646;7.078;2023-08-30T15:42:23;15.40;99.90